createdAt,value
2023-03-29T12:12:58.063Z,9.30
2023-03-29T12:15:27.973Z,9.40
2023-03-29T12:18:32.205Z,9.50
2023-03-29T12:21:12.096Z,9.50
2023-03-29T12:23:41.290Z,9.60
2023-03-29T12:26:41.565Z,9.70
2023-03-29T12:29:33.090Z,9.70
2023-03-29T12:32:07.847Z,9.80
2023-03-29T12:35:01.634Z,9.80
2023-03-29T12:37:47.161Z,9.90
2023-03-29T12:40:18.910Z,10.00
2023-03-29T12:42:53.406Z,10.00
2023-03-29T12:45:29.713Z,10.10
2023-03-29T12:47:56.454Z,10.10
2023-03-29T12:50:35.594Z,10.20
2023-03-29T12:53:17.414Z,10.30
2023-03-29T12:55:43.869Z,10.20
2023-03-29T12:58:26.207Z,10.40
2023-03-29T13:01:10.452Z,10.50
2023-03-29T13:06:11.488Z,10.40
2023-03-29T13:08:41.801Z,10.40
2023-03-29T13:13:57.254Z,10.50
2023-03-29T13:16:33.484Z,10.60
2023-03-29T13:58:41.713Z,10.90
2023-03-29T14:01:28.901Z,10.90
2023-03-29T14:03:56.555Z,11.00
2023-03-29T14:06:31.670Z,11.00
2023-03-29T14:09:04.302Z,11.00
2023-03-29T14:11:31.281Z,11.00
2023-03-29T14:14:00.168Z,11.00
2023-03-29T14:16:32.779Z,11.00
2023-03-29T14:19:02.240Z,11.00
2023-03-29T14:21:29.466Z,11.00
2023-03-29T14:24:01.544Z,11.00
2023-03-29T14:26:33.686Z,11.10
2023-03-29T14:29:01.711Z,11.10
2023-03-29T14:31:35.459Z,11.10
2023-03-29T14:34:04.580Z,11.10
2023-03-29T14:36:33.319Z,11.10
2023-03-29T14:39:08.048Z,11.10
2023-03-29T14:41:37.353Z,11.10
2023-03-29T14:44:06.726Z,11.10
2023-03-29T14:46:34.338Z,11.10
2023-03-29T14:49:02.004Z,11.10
2023-03-29T14:51:30.938Z,11.10
2023-03-29T14:54:00.231Z,11.10
2023-03-29T14:56:27.007Z,11.10
2023-03-29T14:58:55.809Z,11.10
2023-03-29T15:01:24.806Z,11.10
2023-03-29T15:04:17.410Z,11.20
2023-03-29T15:06:46.741Z,11.20
2023-03-29T15:09:18.914Z,11.10
2023-03-29T15:11:57.329Z,11.20
2023-03-29T15:14:27.373Z,11.20
2023-03-29T15:17:00.376Z,11.20
2023-03-29T15:19:27.108Z,11.20
2023-03-29T16:01:47.848Z,11.20
2023-03-29T16:04:17.346Z,11.30
2023-03-29T16:06:46.743Z,11.30
2023-03-29T16:09:13.248Z,11.30
2023-03-29T16:11:41.357Z,11.30
2023-03-29T16:14:17.410Z,11.30
2023-03-29T16:16:44.001Z,11.30
2023-03-29T16:19:10.805Z,11.30
2023-03-29T16:21:37.448Z,11.30
2023-03-29T16:24:04.573Z,11.30
2023-03-29T16:26:31.564Z,11.30
2023-03-29T16:28:58.083Z,11.30
2023-03-29T16:31:26.822Z,11.30
2023-03-29T16:33:53.936Z,11.30
2023-03-29T16:36:20.548Z,11.30
2023-03-29T16:38:47.176Z,11.30
2023-03-29T16:41:16.899Z,11.20
2023-03-29T16:43:44.619Z,11.30
2023-03-29T16:46:11.769Z,11.20
2023-03-29T16:48:39.010Z,11.20
2023-03-29T16:51:06.809Z,11.20
2023-03-29T16:53:34.348Z,11.20
2023-03-29T16:56:01.544Z,11.20
2023-03-29T16:58:28.476Z,11.20
2023-03-29T17:00:56.116Z,11.20
2023-03-29T17:03:23.103Z,11.20
2023-03-29T17:05:51.849Z,11.20
2023-03-29T17:08:20.181Z,11.20
2023-03-29T17:10:51.634Z,11.20
2023-03-29T17:13:18.202Z,11.20
2023-03-29T17:15:44.784Z,11.10
2023-03-29T17:18:12.087Z,11.10
2023-03-29T17:20:39.161Z,11.10
2023-03-29T17:23:05.759Z,11.10
2023-03-29T17:25:32.294Z,11.10
2023-03-29T17:27:58.835Z,11.00
2023-03-29T17:30:25.363Z,11.00
2023-03-29T17:32:52.265Z,11.00
2023-03-29T17:35:18.880Z,11.00
2023-03-29T17:37:45.377Z,11.00
2023-03-29T17:40:14.889Z,11.00
2023-03-29T17:42:43.234Z,11.00
2023-03-29T17:45:11.074Z,11.00
2023-03-29T17:47:38.519Z,10.90
2023-03-29T17:50:06.638Z,10.90
2023-03-29T17:52:33.286Z,10.90
2023-03-29T17:54:59.927Z,10.90
2023-03-29T17:57:26.611Z,10.90
2023-03-29T17:59:53.277Z,10.90
2023-03-29T18:02:22.951Z,10.80
2023-03-29T18:04:50.664Z,10.80
2023-03-29T18:07:17.654Z,10.80
2023-03-29T18:09:44.255Z,10.80
2023-03-29T18:12:10.867Z,10.80
2023-03-29T18:14:37.469Z,10.70
2023-03-29T18:17:04.204Z,10.70
2023-03-29T18:19:30.952Z,10.70
2023-03-29T18:21:57.794Z,10.70
2023-03-29T18:24:24.357Z,10.70
2023-03-29T18:26:51.154Z,10.60
2023-03-29T18:29:17.750Z,10.60
2023-03-29T18:31:45.834Z,10.60
2023-03-29T18:34:12.504Z,10.60
2023-03-29T18:36:39.018Z,10.60
2023-03-29T18:39:05.748Z,10.50
2023-03-29T18:41:34.582Z,10.50
2023-03-29T18:44:01.265Z,10.50
2023-03-29T18:46:30.991Z,10.50
2023-03-29T18:48:59.519Z,10.50
2023-03-29T18:51:27.909Z,10.50
2023-03-29T18:53:55.503Z,10.40
2023-03-29T18:56:22.226Z,10.40
2023-03-29T18:58:48.821Z,10.40
2023-03-29T19:01:15.540Z,10.40
2023-03-29T19:03:42.356Z,10.30
2023-03-29T19:06:09.310Z,10.30
2023-03-29T19:08:38.611Z,10.30
2023-03-29T19:11:07.651Z,10.30
2023-03-29T19:13:35.343Z,10.20
2023-03-29T19:16:02.812Z,10.20
2023-03-29T19:18:29.660Z,10.20
2023-03-29T19:20:56.346Z,10.20
2023-03-29T19:23:28.088Z,10.20
2023-03-29T19:25:56.413Z,10.20
2023-03-29T19:28:23.419Z,10.20
2023-03-29T19:30:49.990Z,10.10
2023-03-29T19:33:16.899Z,10.10
2023-03-29T19:35:43.780Z,10.10
2023-03-29T19:38:10.706Z,10.00
2023-03-29T19:40:37.362Z,10.00
2023-03-29T19:43:04.828Z,10.00
2023-03-29T19:45:31.600Z,10.00
2023-03-29T19:48:02.836Z,10.00
2023-03-29T19:50:31.494Z,10.00
2023-03-29T19:52:58.386Z,10.00
2023-03-29T19:55:25.351Z,9.90
2023-03-29T19:57:52.210Z,9.90
2023-03-29T20:00:19.180Z,9.90
2023-03-29T20:02:45.716Z,9.90
2023-03-29T20:05:12.450Z,9.90
2023-03-29T20:07:39.056Z,9.90
2023-03-29T20:10:06.040Z,9.90
2023-03-29T20:12:32.629Z,9.90
2023-03-29T20:14:59.115Z,9.90
2023-03-29T20:17:25.726Z,9.90
2023-03-29T20:19:53.770Z,9.80
2023-03-29T20:22:20.344Z,9.80
2023-03-29T20:24:46.845Z,9.80
2023-03-29T20:27:13.791Z,9.80
2023-03-29T20:29:40.331Z,9.80
2023-03-29T20:32:07.386Z,9.80
2023-03-29T20:34:33.960Z,9.80
2023-03-29T20:37:00.878Z,9.80
2023-03-29T20:39:29.484Z,9.70
2023-03-29T20:41:56.070Z,9.80
2023-03-29T20:44:26.038Z,9.70
2023-03-29T20:47:03.286Z,9.70
2023-03-29T20:49:37.178Z,9.70
2023-03-29T20:52:12.195Z,9.70
2023-03-29T20:54:39.036Z,9.70
2023-03-29T20:57:06.803Z,9.70
2023-03-29T20:59:34.337Z,9.70
2023-03-29T21:02:01.147Z,9.60
2023-03-29T21:04:28.185Z,9.60
2023-03-29T21:06:55.996Z,9.60
2023-03-29T21:09:23.774Z,9.60
2023-03-29T21:11:50.794Z,9.60
2023-03-29T21:14:19.418Z,9.60
2023-03-29T21:16:47.489Z,9.60
2023-03-29T21:19:15.426Z,9.60
2023-03-29T21:21:43.371Z,9.50
2023-03-29T21:24:13.103Z,9.60
2023-03-29T21:26:40.665Z,9.50
2023-03-29T21:29:07.641Z,9.50
2023-03-29T21:31:34.273Z,9.50
2023-03-29T21:34:00.948Z,9.50
2023-03-29T21:36:27.514Z,9.50
2023-03-29T21:38:54.575Z,9.50
2023-03-29T21:41:21.772Z,9.50
2023-03-29T21:43:48.588Z,9.50
2023-03-29T21:46:15.466Z,9.50
2023-03-29T21:48:42.101Z,9.50
2023-03-29T21:51:08.909Z,9.40
2023-03-29T21:53:35.439Z,9.40
2023-03-29T21:56:02.183Z,9.40
2023-03-29T21:58:28.806Z,9.40
2023-03-29T22:00:56.740Z,9.40
2023-03-29T22:03:23.368Z,9.40
2023-03-29T22:06:02.456Z,9.40
2023-03-29T22:08:30.649Z,9.40
2023-03-29T22:10:57.354Z,9.40
2023-03-29T22:13:26.905Z,9.40
2023-03-29T22:16:03.458Z,9.40
2023-03-29T22:18:42.329Z,9.30
2023-03-29T22:21:22.375Z,9.30
2023-03-29T22:23:51.297Z,9.30
2023-03-29T22:26:19.640Z,9.30
2023-03-29T22:28:46.145Z,9.30
2023-03-29T22:31:15.418Z,9.30
2023-03-29T22:33:42.733Z,9.30
2023-03-29T22:36:13.893Z,9.30
2023-03-29T22:38:40.408Z,9.30
2023-03-29T22:41:07.309Z,9.30
2023-03-29T22:43:34.240Z,9.30
2023-03-29T22:46:00.950Z,9.30
2023-03-29T22:48:27.506Z,9.30
2023-03-29T22:50:54.010Z,9.30
2023-03-29T22:53:20.624Z,9.30
2023-03-29T22:55:47.178Z,9.20
2023-03-29T22:58:13.713Z,9.20
2023-03-29T23:00:40.605Z,9.20
2023-03-29T23:03:07.192Z,9.20
2023-03-29T23:05:33.833Z,9.20
2023-03-29T23:08:00.444Z,9.20
2023-03-29T23:10:28.864Z,9.20
2023-03-29T23:13:09.592Z,9.20
2023-03-29T23:15:37.992Z,9.20
2023-03-29T23:18:05.928Z,9.20
2023-03-29T23:20:32.838Z,9.20
2023-03-29T23:22:59.817Z,9.20
2023-03-29T23:25:27.102Z,9.20
2023-03-29T23:27:53.852Z,9.20
2023-03-29T23:30:21.617Z,9.20
2023-03-29T23:32:49.229Z,9.20
2023-03-29T23:35:16.322Z,9.20
2023-03-29T23:37:43.135Z,9.20
2023-03-29T23:40:16.682Z,9.20
2023-03-29T23:42:45.449Z,9.20
2023-03-29T23:45:18.108Z,9.20
2023-03-29T23:47:45.508Z,9.20
2023-03-29T23:50:14.252Z,9.20
2023-03-29T23:52:41.607Z,9.20
2023-03-29T23:55:12.379Z,9.20
2023-03-29T23:57:38.879Z,9.20
